sensor_id;sensor_type;location;lat;lon;timestamp;P1;durP1;ratioP1;P2;durP2;ratioP2
22144;SDS011;11238;48.730;11.566;2023-09-19T00:01:20;2.35;;;1.67;;
22144;SDS011;11238;48.730;11.566;2023-09-19T00:03:47;2.80;;;1.45;;
22144;SDS011;11238;48.730;11.566;2023-09-19T00:06:12;3.85;;;1.48;;
22144;SDS011;11238;48.730;11.566;2023-09-19T00:08:41;4.95;;;1.73;;
22144;SDS011;11238;48.730;11.566;2023-09-19T00:11:10;1.45;;;1.20;;
22144;SDS011;11238;48.730;11.566;2023-09-19T00:13:36;3.92;;;1.75;;
22144;SDS011;11238;48.730;11.566;2023-09-19T00:16:11;3.45;;;1.50;;
22144;SDS011;11238;48.730;11.566;2023-09-19T00:18:38;3.25;;;1.50;;
22144;SDS011;11238;48.730;11.566;2023-09-19T00:21:03;2.47;;;1.50;;
22144;SDS011;11238;48.730;11.566;2023-09-19T00:23:33;4.05;;;1.52;;
22144;SDS011;11238;48.730;11.566;2023-09-19T00:25:59;4.07;;;1.70;;
22144;SDS011;11238;48.730;11.566;2023-09-19T00:28:26;5.60;;;1.40;;
22144;SDS011;11238;48.730;11.566;2023-09-19T00:30:53;4.18;;;1.52;;
22144;SDS011;11238;48.730;11.566;2023-09-19T00:33:22;4.60;;;1.23;;
22144;SDS011;11238;48.730;11.566;2023-09-19T00:35:48;1.80;;;1.40;;
22144;SDS011;11238;48.730;11.566;2023-09-19T00:38:14;2.97;;;1.50;;
22144;SDS011;11238;48.730;11.566;2023-09-19T00:40:46;3.17;;;1.70;;
22144;SDS011;11238;48.730;11.566;2023-09-19T00:43:12;5.20;;;1.70;;
22144;SDS011;11238;48.730;11.566;2023-09-19T00:45:39;3.67;;;1.38;;
22144;SDS011;11238;48.730;11.566;2023-09-19T00:48:09;2.38;;;1.40;;
22144;SDS011;11238;48.730;11.566;2023-09-19T00:50:36;4.05;;;1.50;;
22144;SDS011;11238;48.730;11.566;2023-09-19T00:53:02;4.03;;;1.75;;
22144;SDS011;11238;48.730;11.566;2023-09-19T00:55:34;2.17;;;1.30;;
22144;SDS011;11238;48.730;11.566;2023-09-19T00:58:02;1.50;;;1.40;;
22144;SDS011;11238;48.730;11.566;2023-09-19T01:00:31;7.57;;;1.80;;
22144;SDS011;11238;48.730;11.566;2023-09-19T01:02:59;3.63;;;1.55;;
22144;SDS011;11238;48.730;11.566;2023-09-19T01:05:29;4.88;;;1.70;;
22144;SDS011;11238;48.730;11.566;2023-09-19T01:07:55;2.97;;;1.60;;
22144;SDS011;11238;48.730;11.566;2023-09-19T01:10:21;2.70;;;1.50;;
22144;SDS011;11238;48.730;11.566;2023-09-19T01:12:54;2.15;;;1.40;;
22144;SDS011;11238;48.730;11.566;2023-09-19T01:20:54;3.45;;;1.40;;
22144;SDS011;11238;48.730;11.566;2023-09-19T01:26:10;3.35;;;1.60;;
22144;SDS011;11238;48.730;11.566;2023-09-19T01:32:03;3.40;;;1.58;;
22144;SDS011;11238;48.730;11.566;2023-09-19T01:34:47;4.53;;;1.60;;
22144;SDS011;11238;48.730;11.566;2023-09-19T01:37:16;3.13;;;1.35;;
22144;SDS011;11238;48.730;11.566;2023-09-19T01:40:09;2.47;;;1.58;;
22144;SDS011;11238;48.730;11.566;2023-09-19T01:42:57;4.63;;;1.60;;
22144;SDS011;11238;48.730;11.566;2023-09-19T01:48:38;2.55;;;1.58;;
22144;SDS011;11238;48.730;11.566;2023-09-19T01:51:08;3.10;;;1.60;;
22144;SDS011;11238;48.730;11.566;2023-09-19T01:53:41;1.98;;;1.50;;
22144;SDS011;11238;48.730;11.566;2023-09-19T01:56:40;2.38;;;1.52;;
22144;SDS011;11238;48.730;11.566;2023-09-19T01:59:14;4.47;;;1.60;;
22144;SDS011;11238;48.730;11.566;2023-09-19T02:01:46;2.37;;;1.70;;
22144;SDS011;11238;48.730;11.566;2023-09-19T02:04:15;2.80;;;1.52;;
22144;SDS011;11238;48.730;11.566;2023-09-19T02:06:41;2.38;;;1.52;;
22144;SDS011;11238;48.730;11.566;2023-09-19T02:09:07;3.97;;;1.60;;
22144;SDS011;11238;48.730;11.566;2023-09-19T02:11:34;2.25;;;1.23;;
22144;SDS011;11238;48.730;11.566;2023-09-19T02:14:02;3.90;;;1.60;;
22144;SDS011;11238;48.730;11.566;2023-09-19T02:16:29;3.13;;;1.60;;
22144;SDS011;11238;48.730;11.566;2023-09-19T02:18:55;3.88;;;1.38;;
22144;SDS011;11238;48.730;11.566;2023-09-19T02:21:22;2.72;;;1.52;;
22144;SDS011;11238;48.730;11.566;2023-09-19T02:23:48;4.47;;;1.45;;
22144;SDS011;11238;48.730;11.566;2023-09-19T02:26:14;4.20;;;1.55;;
22144;SDS011;11238;48.730;11.566;2023-09-19T02:28:40;2.80;;;1.55;;
22144;SDS011;11238;48.730;11.566;2023-09-19T02:31:07;2.97;;;1.77;;
22144;SDS011;11238;48.730;11.566;2023-09-19T02:33:33;3.50;;;1.45;;
22144;SDS011;11238;48.730;11.566;2023-09-19T02:36:00;2.05;;;1.30;;
22144;SDS011;11238;48.730;11.566;2023-09-19T02:38:29;3.13;;;1.60;;
22144;SDS011;11238;48.730;11.566;2023-09-19T02:40:55;2.28;;;1.42;;
22144;SDS011;11238;48.730;11.566;2023-09-19T02:43:21;2.08;;;1.30;;
22144;SDS011;11238;48.730;11.566;2023-09-19T02:45:48;3.10;;;1.20;;
22144;SDS011;11238;48.730;11.566;2023-09-19T02:48:15;2.78;;;1.45;;
22144;SDS011;11238;48.730;11.566;2023-09-19T02:50:42;2.63;;;1.50;;
22144;SDS011;11238;48.730;11.566;2023-09-19T02:53:30;3.13;;;1.50;;
22144;SDS011;11238;48.730;11.566;2023-09-19T02:55:59;1.23;;;1.10;;
22144;SDS011;11238;48.730;11.566;2023-09-19T02:58:26;4.53;;;1.30;;
22144;SDS011;11238;48.730;11.566;2023-09-19T03:00:53;3.33;;;1.40;;
22144;SDS011;11238;48.730;11.566;2023-09-19T03:03:20;2.10;;;1.40;;
22144;SDS011;11238;48.730;11.566;2023-09-19T03:05:46;2.92;;;1.08;;
22144;SDS011;11238;48.730;11.566;2023-09-19T03:08:14;2.53;;;1.38;;
22144;SDS011;11238;48.730;11.566;2023-09-19T03:10:40;3.15;;;1.27;;
22144;SDS011;11238;48.730;11.566;2023-09-19T03:13:06;3.63;;;1.30;;
22144;SDS011;11238;48.730;11.566;2023-09-19T03:15:35;2.85;;;1.50;;
22144;SDS011;11238;48.730;11.566;2023-09-19T03:18:04;5.55;;;1.58;;
22144;SDS011;11238;48.730;11.566;2023-09-19T03:20:31;2.60;;;1.35;;
22144;SDS011;11238;48.730;11.566;2023-09-19T03:22:57;3.15;;;1.30;;
22144;SDS011;11238;48.730;11.566;2023-09-19T03:25:26;1.90;;;1.30;;
22144;SDS011;11238;48.730;11.566;2023-09-19T03:27:55;5.40;;;1.60;;
22144;SDS011;11238;48.730;11.566;2023-09-19T03:30:24;3.90;;;1.40;;
22144;SDS011;11238;48.730;11.566;2023-09-19T03:32:50;3.67;;;1.45;;
22144;SDS011;11238;48.730;11.566;2023-09-19T03:35:17;4.40;;;1.50;;
22144;SDS011;11238;48.730;11.566;2023-09-19T03:37:44;1.90;;;1.30;;
22144;SDS011;11238;48.730;11.566;2023-09-19T03:40:10;2.30;;;1.33;;
22144;SDS011;11238;48.730;11.566;2023-09-19T03:42:38;2.92;;;1.40;;
22144;SDS011;11238;48.730;11.566;2023-09-19T03:45:04;3.40;;;1.25;;
22144;SDS011;11238;48.730;11.566;2023-09-19T03:47:32;2.72;;;1.67;;
22144;SDS011;11238;48.730;11.566;2023-09-19T03:50:00;3.38;;;1.40;;
22144;SDS011;11238;48.730;11.566;2023-09-19T03:52:25;2.78;;;1.70;;
22144;SDS011;11238;48.730;11.566;2023-09-19T03:54:52;5.40;;;1.42;;
22144;SDS011;11238;48.730;11.566;2023-09-19T03:57:18;6.47;;;1.70;;
22144;SDS011;11238;48.730;11.566;2023-09-19T03:59:45;3.13;;;1.52;;
22144;SDS011;11238;48.730;11.566;2023-09-19T04:02:12;3.28;;;1.40;;
22144;SDS011;11238;48.730;11.566;2023-09-19T04:04:49;3.50;;;1.70;;
22144;SDS011;11238;48.730;11.566;2023-09-19T04:07:14;3.20;;;1.65;;
22144;SDS011;11238;48.730;11.566;2023-09-19T04:09:41;6.55;;;1.88;;
22144;SDS011;11238;48.730;11.566;2023-09-19T04:12:07;4.18;;;1.67;;
22144;SDS011;11238;48.730;11.566;2023-09-19T04:14:34;3.60;;;1.80;;
22144;SDS011;11238;48.730;11.566;2023-09-19T04:17:00;3.30;;;1.67;;
22144;SDS011;11238;48.730;11.566;2023-09-19T04:19:26;4.57;;;1.85;;
22144;SDS011;11238;48.730;11.566;2023-09-19T04:21:52;2.95;;;1.88;;
22144;SDS011;11238;48.730;11.566;2023-09-19T04:24:18;3.10;;;1.70;;
22144;SDS011;11238;48.730;11.566;2023-09-19T04:26:45;6.53;;;2.05;;
22144;SDS011;11238;48.730;11.566;2023-09-19T04:29:11;17.02;;;2.05;;
22144;SDS011;11238;48.730;11.566;2023-09-19T04:32:01;8.18;;;1.90;;
22144;SDS011;11238;48.730;11.566;2023-09-19T04:34:31;4.78;;;2.30;;
22144;SDS011;11238;48.730;11.566;2023-09-19T04:36:57;2.85;;;2.00;;
22144;SDS011;11238;48.730;11.566;2023-09-19T04:39:24;5.32;;;2.15;;
22144;SDS011;11238;48.730;11.566;2023-09-19T04:41:51;4.55;;;2.35;;
22144;SDS011;11238;48.730;11.566;2023-09-19T04:44:18;4.78;;;1.90;;
22144;SDS011;11238;48.730;11.566;2023-09-19T04:46:44;4.53;;;2.22;;
22144;SDS011;11238;48.730;11.566;2023-09-19T04:49:11;3.45;;;1.90;;
22144;SDS011;11238;48.730;11.566;2023-09-19T04:51:37;5.07;;;2.00;;
22144;SDS011;11238;48.730;11.566;2023-09-19T04:54:04;5.00;;;2.20;;
22144;SDS011;11238;48.730;11.566;2023-09-19T04:56:30;4.57;;;2.15;;
22144;SDS011;11238;48.730;11.566;2023-09-19T04:59:00;2.55;;;2.03;;
22144;SDS011;11238;48.730;11.566;2023-09-19T05:01:26;5.00;;;2.17;;
22144;SDS011;11238;48.730;11.566;2023-09-19T05:03:52;3.05;;;2.00;;
22144;SDS011;11238;48.730;11.566;2023-09-19T05:06:21;7.00;;;2.42;;
22144;SDS011;11238;48.730;11.566;2023-09-19T05:08:48;6.05;;;2.40;;
22144;SDS011;11238;48.730;11.566;2023-09-19T05:11:21;5.35;;;2.50;;
22144;SDS011;11238;48.730;11.566;2023-09-19T05:13:48;5.25;;;2.60;;
22144;SDS011;11238;48.730;11.566;2023-09-19T05:16:18;3.90;;;2.30;;
22144;SDS011;11238;48.730;11.566;2023-09-19T05:18:44;4.07;;;2.60;;
22144;SDS011;11238;48.730;11.566;2023-09-19T05:21:10;4.47;;;2.30;;
22144;SDS011;11238;48.730;11.566;2023-09-19T05:23:37;4.82;;;2.50;;
22144;SDS011;11238;48.730;11.566;2023-09-19T05:26:03;3.45;;;2.17;;
22144;SDS011;11238;48.730;11.566;2023-09-19T05:28:30;7.05;;;2.70;;
22144;SDS011;11238;48.730;11.566;2023-09-19T05:31:00;7.55;;;2.13;;
22144;SDS011;11238;48.730;11.566;2023-09-19T05:33:27;10.82;;;2.53;;
22144;SDS011;11238;48.730;11.566;2023-09-19T05:35:53;3.03;;;1.90;;
22144;SDS011;11238;48.730;11.566;2023-09-19T05:38:19;3.65;;;2.17;;
22144;SDS011;11238;48.730;11.566;2023-09-19T05:40:45;3.83;;;2.40;;
22144;SDS011;11238;48.730;11.566;2023-09-19T05:43:12;4.28;;;2.15;;
22144;SDS011;11238;48.730;11.566;2023-09-19T05:45:39;3.47;;;2.10;;
22144;SDS011;11238;48.730;11.566;2023-09-19T05:48:13;4.93;;;2.17;;
22144;SDS011;11238;48.730;11.566;2023-09-19T05:50:42;6.55;;;2.28;;
22144;SDS011;11238;48.730;11.566;2023-09-19T05:53:08;3.45;;;2.00;;
22144;SDS011;11238;48.730;11.566;2023-09-19T05:55:37;6.20;;;2.25;;
22144;SDS011;11238;48.730;11.566;2023-09-19T05:58:03;4.65;;;1.70;;
22144;SDS011;11238;48.730;11.566;2023-09-19T06:00:28;4.22;;;2.15;;
22144;SDS011;11238;48.730;11.566;2023-09-19T06:02:56;8.05;;;2.40;;
22144;SDS011;11238;48.730;11.566;2023-09-19T06:05:23;8.75;;;2.45;;
22144;SDS011;11238;48.730;11.566;2023-09-19T06:07:53;8.73;;;2.20;;
22144;SDS011;11238;48.730;11.566;2023-09-19T06:10:19;7.88;;;2.30;;
22144;SDS011;11238;48.730;11.566;2023-09-19T06:12:48;8.10;;;2.20;;
22144;SDS011;11238;48.730;11.566;2023-09-19T06:15:14;4.93;;;2.10;;
22144;SDS011;11238;48.730;11.566;2023-09-19T06:17:47;3.97;;;2.15;;
22144;SDS011;11238;48.730;11.566;2023-09-19T06:20:14;4.05;;;1.90;;
22144;SDS011;11238;48.730;11.566;2023-09-19T06:22:44;7.05;;;1.63;;
22144;SDS011;11238;48.730;11.566;2023-09-19T06:25:11;4.68;;;1.80;;
22144;SDS011;11238;48.730;11.566;2023-09-19T06:27:48;3.72;;;1.80;;
22144;SDS011;11238;48.730;11.566;2023-09-19T06:30:38;3.43;;;1.93;;
22144;SDS011;11238;48.730;11.566;2023-09-19T06:33:07;3.20;;;1.90;;
22144;SDS011;11238;48.730;11.566;2023-09-19T06:35:33;3.55;;;2.05;;
22144;SDS011;11238;48.730;11.566;2023-09-19T06:38:01;2.38;;;1.90;;
22144;SDS011;11238;48.730;11.566;2023-09-19T06:40:28;3.15;;;1.67;;
22144;SDS011;11238;48.730;11.566;2023-09-19T06:42:56;3.15;;;1.92;;
22144;SDS011;11238;48.730;11.566;2023-09-19T06:45:22;2.60;;;1.90;;
22144;SDS011;11238;48.730;11.566;2023-09-19T06:47:51;1.92;;;1.58;;
22144;SDS011;11238;48.730;11.566;2023-09-19T06:50:20;4.05;;;1.95;;
22144;SDS011;11238;48.730;11.566;2023-09-19T06:52:49;4.07;;;2.13;;
22144;SDS011;11238;48.730;11.566;2023-09-19T06:55:17;5.18;;;2.13;;
22144;SDS011;11238;48.730;11.566;2023-09-19T06:57:45;5.13;;;1.90;;
22144;SDS011;11238;48.730;11.566;2023-09-19T07:00:11;3.38;;;1.73;;
22144;SDS011;11238;48.730;11.566;2023-09-19T07:03:05;1.75;;;1.50;;
22144;SDS011;11238;48.730;11.566;2023-09-19T07:05:33;3.60;;;1.88;;
22144;SDS011;11238;48.730;11.566;2023-09-19T07:08:02;3.42;;;1.98;;
22144;SDS011;11238;48.730;11.566;2023-09-19T07:10:28;3.08;;;1.73;;
22144;SDS011;11238;48.730;11.566;2023-09-19T07:13:02;2.35;;;1.70;;
22144;SDS011;11238;48.730;11.566;2023-09-19T07:15:32;2.42;;;1.50;;
22144;SDS011;11238;48.730;11.566;2023-09-19T07:18:01;2.22;;;1.50;;
22144;SDS011;11238;48.730;11.566;2023-09-19T07:20:26;6.25;;;2.05;;
22144;SDS011;11238;48.730;11.566;2023-09-19T07:22:54;5.43;;;1.67;;
22144;SDS011;11238;48.730;11.566;2023-09-19T07:25:21;2.47;;;1.52;;
22144;SDS011;11238;48.730;11.566;2023-09-19T07:27:47;5.80;;;1.67;;
22144;SDS011;11238;48.730;11.566;2023-09-19T07:30:12;4.00;;;1.60;;
22144;SDS011;11238;48.730;11.566;2023-09-19T07:32:40;2.65;;;1.80;;
22144;SDS011;11238;48.730;11.566;2023-09-19T07:35:06;4.70;;;1.70;;
22144;SDS011;11238;48.730;11.566;2023-09-19T07:37:32;2.50;;;1.77;;
22144;SDS011;11238;48.730;11.566;2023-09-19T07:40:02;3.65;;;1.48;;
22144;SDS011;11238;48.730;11.566;2023-09-19T07:42:38;3.60;;;1.70;;
22144;SDS011;11238;48.730;11.566;2023-09-19T07:47:43;5.35;;;1.88;;
22144;SDS011;11238;48.730;11.566;2023-09-19T07:50:10;2.92;;;1.63;;
22144;SDS011;11238;48.730;11.566;2023-09-19T07:52:37;5.47;;;1.65;;
22144;SDS011;11238;48.730;11.566;2023-09-19T07:55:07;3.28;;;1.35;;
22144;SDS011;11238;48.730;11.566;2023-09-19T07:57:35;1.80;;;1.60;;
22144;SDS011;11238;48.730;11.566;2023-09-19T08:00:01;2.50;;;1.55;;
22144;SDS011;11238;48.730;11.566;2023-09-19T08:02:36;4.93;;;1.23;;
22144;SDS011;11238;48.730;11.566;2023-09-19T08:05:03;3.53;;;1.67;;
22144;SDS011;11238;48.730;11.566;2023-09-19T08:07:36;1.42;;;1.13;;
22144;SDS011;11238;48.730;11.566;2023-09-19T08:10:06;3.33;;;1.48;;
22144;SDS011;11238;48.730;11.566;2023-09-19T08:12:40;4.25;;;1.58;;
22144;SDS011;11238;48.730;11.566;2023-09-19T08:15:14;3.95;;;1.40;;
22144;SDS011;11238;48.730;11.566;2023-09-19T08:17:47;4.03;;;1.40;;
22144;SDS011;11238;48.730;11.566;2023-09-19T08:20:14;2.92;;;1.60;;
22144;SDS011;11238;48.730;11.566;2023-09-19T08:22:47;4.00;;;1.58;;
22144;SDS011;11238;48.730;11.566;2023-09-19T08:25:17;5.22;;;1.50;;
22144;SDS011;11238;48.730;11.566;2023-09-19T08:27:43;2.28;;;1.20;;
22144;SDS011;11238;48.730;11.566;2023-09-19T08:30:15;3.63;;;1.25;;
22144;SDS011;11238;48.730;11.566;2023-09-19T08:32:41;5.85;;;1.20;;
22144;SDS011;11238;48.730;11.566;2023-09-19T08:35:11;1.50;;;1.00;;
22144;SDS011;11238;48.730;11.566;2023-09-19T08:37:37;2.88;;;1.30;;
22144;SDS011;11238;48.730;11.566;2023-09-19T08:40:03;5.00;;;1.50;;
22144;SDS011;11238;48.730;11.566;2023-09-19T08:42:31;4.78;;;1.10;;
22144;SDS011;11238;48.730;11.566;2023-09-19T08:45:12;5.30;;;1.20;;
22144;SDS011;11238;48.730;11.566;2023-09-19T08:47:40;2.85;;;1.27;;
22144;SDS011;11238;48.730;11.566;2023-09-19T08:50:28;4.05;;;1.50;;
22144;SDS011;11238;48.730;11.566;2023-09-19T08:52:56;3.78;;;1.20;;
22144;SDS011;11238;48.730;11.566;2023-09-19T08:55:27;3.92;;;1.40;;
22144;SDS011;11238;48.730;11.566;2023-09-19T08:58:01;1.98;;;1.25;;
22144;SDS011;11238;48.730;11.566;2023-09-19T09:00:30;4.75;;;1.40;;
22144;SDS011;11238;48.730;11.566;2023-09-19T09:02:56;6.35;;;1.60;;
22144;SDS011;11238;48.730;11.566;2023-09-19T09:05:23;2.95;;;1.50;;
22144;SDS011;11238;48.730;11.566;2023-09-19T09:07:50;1.50;;;1.17;;
22144;SDS011;11238;48.730;11.566;2023-09-19T09:10:22;4.47;;;1.20;;
22144;SDS011;11238;48.730;11.566;2023-09-19T09:12:50;1.77;;;1.20;;
22144;SDS011;11238;48.730;11.566;2023-09-19T09:15:19;4.50;;;1.33;;
22144;SDS011;11238;48.730;11.566;2023-09-19T09:17:47;2.40;;;1.15;;
22144;SDS011;11238;48.730;11.566;2023-09-19T09:20:18;4.75;;;1.13;;
22144;SDS011;11238;48.730;11.566;2023-09-19T09:22:51;2.85;;;1.30;;
22144;SDS011;11238;48.730;11.566;2023-09-19T09:25:21;2.03;;;1.00;;
22144;SDS011;11238;48.730;11.566;2023-09-19T09:28:00;2.20;;;1.10;;
22144;SDS011;11238;48.730;11.566;2023-09-19T09:30:34;1.38;;;0.95;;
22144;SDS011;11238;48.730;11.566;2023-09-19T09:33:12;4.28;;;1.40;;
22144;SDS011;11238;48.730;11.566;2023-09-19T09:38:21;3.55;;;1.35;;
22144;SDS011;11238;48.730;11.566;2023-09-19T09:40:56;2.20;;;1.33;;
22144;SDS011;11238;48.730;11.566;2023-09-19T09:43:35;3.47;;;1.08;;
22144;SDS011;11238;48.730;11.566;2023-09-19T09:49:01;3.60;;;1.40;;
22144;SDS011;11238;48.730;11.566;2023-09-19T09:52:05;2.05;;;1.75;;
22144;SDS011;11238;48.730;11.566;2023-09-19T09:54:33;2.60;;;1.20;;
22144;SDS011;11238;48.730;11.566;2023-09-19T09:57:04;2.17;;;1.70;;
22144;SDS011;11238;48.730;11.566;2023-09-19T09:59:55;4.20;;;1.55;;
22144;SDS011;11238;48.730;11.566;2023-09-19T10:02:38;2.90;;;1.48;;
22144;SDS011;11238;48.730;11.566;2023-09-19T10:05:14;2.15;;;1.50;;
22144;SDS011;11238;48.730;11.566;2023-09-19T10:07:54;2.78;;;1.40;;
22144;SDS011;11238;48.730;11.566;2023-09-19T10:10:40;8.77;;;3.28;;
22144;SDS011;11238;48.730;11.566;2023-09-19T10:13:09;4.32;;;1.85;;
22144;SDS011;11238;48.730;11.566;2023-09-19T10:15:44;3.10;;;2.15;;
22144;SDS011;11238;48.730;11.566;2023-09-19T10:18:19;4.55;;;2.13;;
22144;SDS011;11238;48.730;11.566;2023-09-19T10:20:46;5.07;;;2.17;;
22144;SDS011;11238;48.730;11.566;2023-09-19T10:23:14;4.68;;;1.60;;
22144;SDS011;11238;48.730;11.566;2023-09-19T10:25:47;4.30;;;1.73;;
22144;SDS011;11238;48.730;11.566;2023-09-19T10:28:15;3.35;;;2.20;;
22144;SDS011;11238;48.730;11.566;2023-09-19T10:30:48;11.60;;;3.72;;
22144;SDS011;11238;48.730;11.566;2023-09-19T10:33:21;6.90;;;3.53;;
22144;SDS011;11238;48.730;11.566;2023-09-19T10:35:51;4.32;;;2.15;;
22144;SDS011;11238;48.730;11.566;2023-09-19T10:38:19;2.88;;;1.75;;
22144;SDS011;11238;48.730;11.566;2023-09-19T10:40:49;6.10;;;1.90;;
22144;SDS011;11238;48.730;11.566;2023-09-19T10:43:20;2.95;;;2.10;;
22144;SDS011;11238;48.730;11.566;2023-09-19T10:45:50;4.32;;;1.92;;
22144;SDS011;11238;48.730;11.566;2023-09-19T10:48:19;4.75;;;1.90;;
22144;SDS011;11238;48.730;11.566;2023-09-19T10:50:50;3.17;;;2.05;;
22144;SDS011;11238;48.730;11.566;2023-09-19T10:53:25;4.25;;;2.40;;
22144;SDS011;11238;48.730;11.566;2023-09-19T10:55:53;5.22;;;2.20;;
22144;SDS011;11238;48.730;11.566;2023-09-19T10:58:31;6.20;;;3.33;;
22144;SDS011;11238;48.730;11.566;2023-09-19T11:01:04;4.15;;;2.53;;
22144;SDS011;11238;48.730;11.566;2023-09-19T11:03:38;3.80;;;2.10;;
22144;SDS011;11238;48.730;11.566;2023-09-19T11:06:10;4.13;;;2.50;;
22144;SDS011;11238;48.730;11.566;2023-09-19T11:08:55;6.47;;;2.63;;
22144;SDS011;11238;48.730;11.566;2023-09-19T11:30:41;4.68;;;1.75;;
22144;SDS011;11238;48.730;11.566;2023-09-19T11:33:18;2.78;;;1.38;;
22144;SDS011;11238;48.730;11.566;2023-09-19T11:49:30;2.63;;;1.23;;
22144;SDS011;11238;48.730;11.566;2023-09-19T11:51:58;1.55;;;1.20;;
22144;SDS011;11238;48.730;11.566;2023-09-19T11:54:33;1.73;;;1.10;;
22144;SDS011;11238;48.730;11.566;2023-09-19T11:57:02;2.95;;;1.30;;
22144;SDS011;11238;48.730;11.566;2023-09-19T11:59:30;3.72;;;1.30;;
22144;SDS011;11238;48.730;11.566;2023-09-19T12:01:56;2.28;;;1.20;;
22144;SDS011;11238;48.730;11.566;2023-09-19T12:04:39;1.67;;;1.20;;
22144;SDS011;11238;48.730;11.566;2023-09-19T12:07:09;2.13;;;1.48;;
22144;SDS011;11238;48.730;11.566;2023-09-19T12:09:44;3.25;;;1.20;;
22144;SDS011;11238;48.730;11.566;2023-09-19T12:12:24;2.80;;;1.23;;
22144;SDS011;11238;48.730;11.566;2023-09-19T12:14:56;2.22;;;1.30;;
22144;SDS011;11238;48.730;11.566;2023-09-19T12:17:35;2.17;;;1.10;;
22144;SDS011;11238;48.730;11.566;2023-09-19T12:20:06;1.75;;;1.20;;
22144;SDS011;11238;48.730;11.566;2023-09-19T12:22:40;2.38;;;1.25;;
22144;SDS011;11238;48.730;11.566;2023-09-19T12:25:10;3.47;;;1.30;;
22144;SDS011;11238;48.730;11.566;2023-09-19T12:27:43;3.42;;;1.10;;
22144;SDS011;11238;48.730;11.566;2023-09-19T12:30:11;5.03;;;1.60;;
22144;SDS011;11238;48.730;11.566;2023-09-19T12:32:40;1.33;;;0.90;;
22144;SDS011;11238;48.730;11.566;2023-09-19T12:35:07;3.15;;;1.05;;
22144;SDS011;11238;48.730;11.566;2023-09-19T12:37:45;1.67;;;0.93;;
22144;SDS011;11238;48.730;11.566;2023-09-19T12:40:19;4.15;;;1.10;;
22144;SDS011;11238;48.730;11.566;2023-09-19T12:42:47;2.08;;;0.90;;
22144;SDS011;11238;48.730;11.566;2023-09-19T12:45:15;2.80;;;1.17;;
22144;SDS011;11238;48.730;11.566;2023-09-19T12:50:58;4.10;;;1.17;;
22144;SDS011;11238;48.730;11.566;2023-09-19T12:53:36;1.58;;;0.82;;
22144;SDS011;11238;48.730;11.566;2023-09-19T12:56:08;2.63;;;1.02;;
22144;SDS011;11238;48.730;11.566;2023-09-19T12:58:51;2.67;;;1.20;;
22144;SDS011;11238;48.730;11.566;2023-09-19T13:01:22;2.15;;;1.00;;
22144;SDS011;11238;48.730;11.566;2023-09-19T13:04:20;1.90;;;1.00;;
22144;SDS011;11238;48.730;11.566;2023-09-19T13:06:55;4.50;;;1.10;;
22144;SDS011;11238;48.730;11.566;2023-09-19T13:09:26;3.38;;;1.20;;
22144;SDS011;11238;48.730;11.566;2023-09-19T13:11:59;2.97;;;0.88;;
22144;SDS011;11238;48.730;11.566;2023-09-19T13:14:27;1.65;;;0.82;;
22144;SDS011;11238;48.730;11.566;2023-09-19T13:19:43;2.42;;;0.90;;
22144;SDS011;11238;48.730;11.566;2023-09-19T13:25:12;2.28;;;0.98;;
22144;SDS011;11238;48.730;11.566;2023-09-19T13:27:41;1.67;;;1.00;;
22144;SDS011;11238;48.730;11.566;2023-09-19T13:30:07;1.98;;;1.08;;
22144;SDS011;11238;48.730;11.566;2023-09-19T13:32:34;1.63;;;1.20;;
22144;SDS011;11238;48.730;11.566;2023-09-19T13:35:00;2.33;;;1.10;;
22144;SDS011;11238;48.730;11.566;2023-09-19T13:37:26;2.08;;;1.20;;
22144;SDS011;11238;48.730;11.566;2023-09-19T13:39:52;1.58;;;1.10;;
22144;SDS011;11238;48.730;11.566;2023-09-19T13:42:19;3.05;;;1.00;;
22144;SDS011;11238;48.730;11.566;2023-09-19T13:44:46;1.83;;;0.98;;
22144;SDS011;11238;48.730;11.566;2023-09-19T13:47:13;2.63;;;1.10;;
22144;SDS011;11238;48.730;11.566;2023-09-19T13:49:40;1.33;;;0.90;;
22144;SDS011;11238;48.730;11.566;2023-09-19T13:52:08;4.57;;;1.00;;
22144;SDS011;11238;48.730;11.566;2023-09-19T13:54:34;1.23;;;1.08;;
22144;SDS011;11238;48.730;11.566;2023-09-19T13:57:01;1.88;;;1.17;;
22144;SDS011;11238;48.730;11.566;2023-09-19T13:59:26;5.18;;;1.30;;
22144;SDS011;11238;48.730;11.566;2023-09-19T14:01:54;2.55;;;0.90;;
22144;SDS011;11238;48.730;11.566;2023-09-19T14:04:20;2.30;;;1.10;;
22144;SDS011;11238;48.730;11.566;2023-09-19T14:06:47;2.90;;;1.20;;
22144;SDS011;11238;48.730;11.566;2023-09-19T14:09:12;4.95;;;1.08;;
22144;SDS011;11238;48.730;11.566;2023-09-19T14:11:39;1.95;;;1.10;;
22144;SDS011;11238;48.730;11.566;2023-09-19T14:14:05;4.78;;;1.10;;
22144;SDS011;11238;48.730;11.566;2023-09-19T14:16:31;2.30;;;0.90;;
22144;SDS011;11238;48.730;11.566;2023-09-19T14:18:58;1.10;;;1.00;;
22144;SDS011;11238;48.730;11.566;2023-09-19T14:21:24;3.22;;;1.02;;
22144;SDS011;11238;48.730;11.566;2023-09-19T14:23:50;2.92;;;1.00;;
22144;SDS011;11238;48.730;11.566;2023-09-19T14:26:16;2.17;;;1.00;;
22144;SDS011;11238;48.730;11.566;2023-09-19T14:28:43;1.33;;;0.90;;
22144;SDS011;11238;48.730;11.566;2023-09-19T14:31:10;2.28;;;1.00;;
22144;SDS011;11238;48.730;11.566;2023-09-19T14:33:37;1.80;;;1.08;;
22144;SDS011;11238;48.730;11.566;2023-09-19T14:36:06;1.58;;;1.00;;
22144;SDS011;11238;48.730;11.566;2023-09-19T14:38:35;1.58;;;1.00;;
22144;SDS011;11238;48.730;11.566;2023-09-19T14:41:02;1.40;;;1.00;;
22144;SDS011;11238;48.730;11.566;2023-09-19T14:43:29;2.22;;;0.90;;
22144;SDS011;11238;48.730;11.566;2023-09-19T14:45:56;1.85;;;1.00;;
22144;SDS011;11238;48.730;11.566;2023-09-19T14:48:25;3.70;;;1.05;;
22144;SDS011;11238;48.730;11.566;2023-09-19T14:50:52;4.93;;;1.00;;
22144;SDS011;11238;48.730;11.566;2023-09-19T14:53:18;3.25;;;1.08;;
22144;SDS011;11238;48.730;11.566;2023-09-19T14:55:44;1.73;;;1.00;;
22144;SDS011;11238;48.730;11.566;2023-09-19T14:58:12;1.27;;;1.00;;
22144;SDS011;11238;48.730;11.566;2023-09-19T15:00:39;3.67;;;1.00;;
22144;SDS011;11238;48.730;11.566;2023-09-19T15:03:04;1.30;;;1.10;;
22144;SDS011;11238;48.730;11.566;2023-09-19T15:05:31;1.85;;;1.10;;
22144;SDS011;11238;48.730;11.566;2023-09-19T15:07:59;1.95;;;1.02;;
22144;SDS011;11238;48.730;11.566;2023-09-19T15:10:25;1.63;;;1.10;;
22144;SDS011;11238;48.730;11.566;2023-09-19T15:12:51;3.75;;;1.13;;
22144;SDS011;11238;48.730;11.566;2023-09-19T15:15:17;6.63;;;1.20;;
22144;SDS011;11238;48.730;11.566;2023-09-19T15:17:42;4.63;;;1.20;;
22144;SDS011;11238;48.730;11.566;2023-09-19T15:20:09;2.45;;;1.05;;
22144;SDS011;11238;48.730;11.566;2023-09-19T15:22:39;6.13;;;1.35;;
22144;SDS011;11238;48.730;11.566;2023-09-19T15:25:07;5.68;;;1.20;;
22144;SDS011;11238;48.730;11.566;2023-09-19T15:27:33;1.35;;;0.75;;
22144;SDS011;11238;48.730;11.566;2023-09-19T15:30:02;3.90;;;1.23;;
22144;SDS011;11238;48.730;11.566;2023-09-19T15:32:30;1.80;;;1.30;;
22144;SDS011;11238;48.730;11.566;2023-09-19T15:34:56;2.45;;;1.00;;
22144;SDS011;11238;48.730;11.566;2023-09-19T15:37:22;2.90;;;1.13;;
22144;SDS011;11238;48.730;11.566;2023-09-19T15:39:50;1.90;;;0.90;;
22144;SDS011;11238;48.730;11.566;2023-09-19T15:42:18;2.58;;;0.90;;
22144;SDS011;11238;48.730;11.566;2023-09-19T15:44:44;4.70;;;1.48;;
22144;SDS011;11238;48.730;11.566;2023-09-19T15:47:11;2.10;;;1.10;;
22144;SDS011;11238;48.730;11.566;2023-09-19T15:49:38;1.95;;;1.10;;
22144;SDS011;11238;48.730;11.566;2023-09-19T15:52:04;1.70;;;0.93;;